sensor_id;sensor_type;location;lat;lon;timestamp;P1;durP1;ratioP1;P2;durP2;ratioP2
13147;SDS011;6639;50.956;4.242;2023-04-03T00:01:43;7.83;;;7.17;;
13147;SDS011;6639;50.956;4.242;2023-04-03T00:04:10;8.23;;;7.43;;
13147;SDS011;6639;50.956;4.242;2023-04-03T00:06:37;8.63;;;7.83;;
13147;SDS011;6639;50.956;4.242;2023-04-03T00:09:04;12.25;;;8.55;;
13147;SDS011;6639;50.956;4.242;2023-04-03T00:11:32;11.10;;;8.15;;
13147;SDS011;6639;50.956;4.242;2023-04-03T00:13:59;10.10;;;9.07;;
13147;SDS011;6639;50.956;4.242;2023-04-03T00:16:26;8.65;;;7.90;;
13147;SDS011;6639;50.956;4.242;2023-04-03T00:18:53;9.52;;;8.73;;
13147;SDS011;6639;50.956;4.242;2023-04-03T00:21:20;9.65;;;8.77;;
13147;SDS011;6639;50.956;4.242;2023-04-03T00:23:47;8.80;;;8.00;;
13147;SDS011;6639;50.956;4.242;2023-04-03T00:26:17;8.73;;;8.02;;
13147;SDS011;6639;50.956;4.242;2023-04-03T00:28:47;8.77;;;7.97;;
13147;SDS011;6639;50.956;4.242;2023-04-03T00:31:14;7.95;;;7.25;;
13147;SDS011;6639;50.956;4.242;2023-04-03T00:33:41;8.73;;;7.93;;
13147;SDS011;6639;50.956;4.242;2023-04-03T00:36:09;8.97;;;7.97;;
13147;SDS011;6639;50.956;4.242;2023-04-03T00:38:36;9.10;;;8.00;;
13147;SDS011;6639;50.956;4.242;2023-04-03T00:41:04;9.03;;;8.23;;
13147;SDS011;6639;50.956;4.242;2023-04-03T00:43:31;9.48;;;8.50;;
13147;SDS011;6639;50.956;4.242;2023-04-03T00:46:00;9.23;;;7.93;;
13147;SDS011;6639;50.956;4.242;2023-04-03T00:48:28;9.63;;;8.70;;
13147;SDS011;6639;50.956;4.242;2023-04-03T00:50:58;9.60;;;8.70;;
13147;SDS011;6639;50.956;4.242;2023-04-03T00:53:33;8.68;;;7.97;;
13147;SDS011;6639;50.956;4.242;2023-04-03T00:56:03;8.57;;;7.77;;
13147;SDS011;6639;50.956;4.242;2023-04-03T00:58:35;8.35;;;7.55;;
13147;SDS011;6639;50.956;4.242;2023-04-03T01:01:08;8.83;;;7.97;;
13147;SDS011;6639;50.956;4.242;2023-04-03T01:03:39;9.30;;;8.00;;
13147;SDS011;6639;50.956;4.242;2023-04-03T01:06:06;8.30;;;7.50;;
13147;SDS011;6639;50.956;4.242;2023-04-03T01:08:36;8.90;;;8.10;;
13147;SDS011;6639;50.956;4.242;2023-04-03T01:11:03;9.20;;;8.30;;
13147;SDS011;6639;50.956;4.242;2023-04-03T01:13:31;7.85;;;7.10;;
13147;SDS011;6639;50.956;4.242;2023-04-03T01:16:00;8.97;;;8.17;;
13147;SDS011;6639;50.956;4.242;2023-04-03T01:18:29;8.77;;;7.97;;
13147;SDS011;6639;50.956;4.242;2023-04-03T01:21:10;9.15;;;8.27;;
13147;SDS011;6639;50.956;4.242;2023-04-03T01:24:21;9.40;;;8.50;;
13147;SDS011;6639;50.956;4.242;2023-04-03T01:27:01;9.27;;;8.40;;
13147;SDS011;6639;50.956;4.242;2023-04-03T01:29:30;10.37;;;8.47;;
13147;SDS011;6639;50.956;4.242;2023-04-03T01:32:00;8.77;;;7.97;;
13147;SDS011;6639;50.956;4.242;2023-04-03T01:34:28;9.63;;;7.43;;
13147;SDS011;6639;50.956;4.242;2023-04-03T01:36:56;7.63;;;7.03;;
13147;SDS011;6639;50.956;4.242;2023-04-03T01:39:23;8.30;;;7.50;;
13147;SDS011;6639;50.956;4.242;2023-04-03T01:41:50;7.80;;;7.20;;
13147;SDS011;6639;50.956;4.242;2023-04-03T01:44:17;8.10;;;7.33;;
13147;SDS011;6639;50.956;4.242;2023-04-03T01:46:44;8.50;;;7.70;;
13147;SDS011;6639;50.956;4.242;2023-04-03T01:49:13;10.83;;;7.63;;
13147;SDS011;6639;50.956;4.242;2023-04-03T01:51:40;8.83;;;8.03;;
13147;SDS011;6639;50.956;4.242;2023-04-03T01:54:07;7.77;;;7.07;;
13147;SDS011;6639;50.956;4.242;2023-04-03T01:56:34;7.93;;;7.13;;
13147;SDS011;6639;50.956;4.242;2023-04-03T01:59:02;7.90;;;7.20;;
13147;SDS011;6639;50.956;4.242;2023-04-03T02:01:29;9.03;;;6.97;;
13147;SDS011;6639;50.956;4.242;2023-04-03T02:03:56;7.22;;;6.53;;
13147;SDS011;6639;50.956;4.242;2023-04-03T02:06:24;7.43;;;6.72;;
13147;SDS011;6639;50.956;4.242;2023-04-03T02:08:52;7.37;;;6.67;;
13147;SDS011;6639;50.956;4.242;2023-04-03T02:11:19;7.07;;;6.37;;
13147;SDS011;6639;50.956;4.242;2023-04-03T02:13:46;7.37;;;6.77;;
13147;SDS011;6639;50.956;4.242;2023-04-03T02:16:13;6.97;;;6.22;;
13147;SDS011;6639;50.956;4.242;2023-04-03T02:18:39;7.40;;;6.73;;
13147;SDS011;6639;50.956;4.242;2023-04-03T02:21:06;8.87;;;7.13;;
13147;SDS011;6639;50.956;4.242;2023-04-03T02:23:35;7.40;;;6.67;;
13147;SDS011;6639;50.956;4.242;2023-04-03T02:26:03;7.17;;;6.43;;
13147;SDS011;6639;50.956;4.242;2023-04-03T02:28:34;6.40;;;5.80;;
13147;SDS011;6639;50.956;4.242;2023-04-03T02:31:01;6.53;;;5.93;;
13147;SDS011;6639;50.956;4.242;2023-04-03T02:33:29;7.40;;;6.70;;
13147;SDS011;6639;50.956;4.242;2023-04-03T02:35:57;6.75;;;6.15;;
13147;SDS011;6639;50.956;4.242;2023-04-03T02:38:24;7.00;;;5.87;;
13147;SDS011;6639;50.956;4.242;2023-04-03T02:40:53;7.23;;;5.10;;
13147;SDS011;6639;50.956;4.242;2023-04-03T02:43:26;6.40;;;5.78;;
13147;SDS011;6639;50.956;4.242;2023-04-03T02:45:53;7.03;;;5.35;;
13147;SDS011;6639;50.956;4.242;2023-04-03T02:48:20;8.07;;;5.93;;
13147;SDS011;6639;50.956;4.242;2023-04-03T02:50:47;6.20;;;5.60;;
13147;SDS011;6639;50.956;4.242;2023-04-03T02:53:14;6.90;;;6.20;;
13147;SDS011;6639;50.956;4.242;2023-04-03T02:55:41;5.57;;;5.15;;
13147;SDS011;6639;50.956;4.242;2023-04-03T02:58:10;6.05;;;5.45;;
13147;SDS011;6639;50.956;4.242;2023-04-03T03:00:37;6.47;;;5.40;;
13147;SDS011;6639;50.956;4.242;2023-04-03T03:03:05;6.47;;;5.47;;
13147;SDS011;6639;50.956;4.242;2023-04-03T03:05:32;6.40;;;5.80;;
13147;SDS011;6639;50.956;4.242;2023-04-03T03:08:00;9.23;;;5.90;;
13147;SDS011;6639;50.956;4.242;2023-04-03T03:10:28;5.97;;;5.57;;
13147;SDS011;6639;50.956;4.242;2023-04-03T03:12:55;6.50;;;5.47;;
13147;SDS011;6639;50.956;4.242;2023-04-03T03:15:24;6.90;;;5.33;;
13147;SDS011;6639;50.956;4.242;2023-04-03T03:17:51;6.47;;;5.87;;
13147;SDS011;6639;50.956;4.242;2023-04-03T03:20:18;6.03;;;5.43;;
13147;SDS011;6639;50.956;4.242;2023-04-03T03:22:45;6.73;;;6.03;;
13147;SDS011;6639;50.956;4.242;2023-04-03T03:25:13;7.60;;;5.97;;
13147;SDS011;6639;50.956;4.242;2023-04-03T03:27:40;6.27;;;5.67;;
13147;SDS011;6639;50.956;4.242;2023-04-03T03:30:07;6.40;;;5.90;;
13147;SDS011;6639;50.956;4.242;2023-04-03T03:32:36;7.37;;;6.63;;
13147;SDS011;6639;50.956;4.242;2023-04-03T03:35:04;6.83;;;6.10;;
13147;SDS011;6639;50.956;4.242;2023-04-03T03:37:31;7.60;;;6.40;;
13147;SDS011;6639;50.956;4.242;2023-04-03T03:39:58;7.17;;;6.50;;
13147;SDS011;6639;50.956;4.242;2023-04-03T03:42:25;7.83;;;6.47;;
13147;SDS011;6639;50.956;4.242;2023-04-03T03:44:52;7.07;;;6.37;;
13147;SDS011;6639;50.956;4.242;2023-04-03T03:47:20;7.50;;;6.77;;
13147;SDS011;6639;50.956;4.242;2023-04-03T03:49:48;7.23;;;6.57;;
13147;SDS011;6639;50.956;4.242;2023-04-03T03:52:18;7.27;;;6.57;;
13147;SDS011;6639;50.956;4.242;2023-04-03T03:54:45;6.80;;;6.13;;
13147;SDS011;6639;50.956;4.242;2023-04-03T03:57:13;6.87;;;5.83;;
13147;SDS011;6639;50.956;4.242;2023-04-03T03:59:40;8.80;;;6.10;;
13147;SDS011;6639;50.956;4.242;2023-04-03T04:02:09;6.45;;;5.85;;
13147;SDS011;6639;50.956;4.242;2023-04-03T04:04:36;7.90;;;6.27;;
13147;SDS011;6639;50.956;4.242;2023-04-03T04:07:05;6.25;;;5.65;;
13147;SDS011;6639;50.956;4.242;2023-04-03T04:09:34;7.00;;;6.07;;
13147;SDS011;6639;50.956;4.242;2023-04-03T04:12:02;6.67;;;5.97;;
13147;SDS011;6639;50.956;4.242;2023-04-03T04:14:29;6.77;;;6.10;;
13147;SDS011;6639;50.956;4.242;2023-04-03T04:16:56;9.90;;;6.43;;
13147;SDS011;6639;50.956;4.242;2023-04-03T04:19:23;6.70;;;6.10;;
13147;SDS011;6639;50.956;4.242;2023-04-03T04:21:50;7.57;;;6.43;;
13147;SDS011;6639;50.956;4.242;2023-04-03T04:24:19;7.43;;;6.80;;
13147;SDS011;6639;50.956;4.242;2023-04-03T04:26:47;6.43;;;5.80;;
13147;SDS011;6639;50.956;4.242;2023-04-03T04:29:15;7.20;;;6.50;;
13147;SDS011;6639;50.956;4.242;2023-04-03T04:31:42;8.10;;;6.13;;
13147;SDS011;6639;50.956;4.242;2023-04-03T04:34:09;7.30;;;6.53;;
13147;SDS011;6639;50.956;4.242;2023-04-03T04:36:37;8.80;;;7.03;;
13147;SDS011;6639;50.956;4.242;2023-04-03T04:39:05;7.40;;;6.33;;
13147;SDS011;6639;50.956;4.242;2023-04-03T04:41:33;7.87;;;7.17;;
13147;SDS011;6639;50.956;4.242;2023-04-03T04:44:00;7.57;;;6.77;;
13147;SDS011;6639;50.956;4.242;2023-04-03T04:46:27;8.03;;;7.03;;
13147;SDS011;6639;50.956;4.242;2023-04-03T04:48:54;7.67;;;6.93;;
13147;SDS011;6639;50.956;4.242;2023-04-03T04:51:21;7.17;;;6.40;;
13147;SDS011;6639;50.956;4.242;2023-04-03T04:53:49;8.10;;;7.17;;
13147;SDS011;6639;50.956;4.242;2023-04-03T04:56:16;7.37;;;6.77;;
13147;SDS011;6639;50.956;4.242;2023-04-03T04:58:44;8.23;;;7.40;;
13147;SDS011;6639;50.956;4.242;2023-04-03T05:01:11;7.70;;;7.00;;
13147;SDS011;6639;50.956;4.242;2023-04-03T05:03:38;7.10;;;6.50;;
13147;SDS011;6639;50.956;4.242;2023-04-03T05:06:06;7.53;;;6.90;;
13147;SDS011;6639;50.956;4.242;2023-04-03T05:08:33;8.40;;;7.63;;
13147;SDS011;6639;50.956;4.242;2023-04-03T05:11:00;7.30;;;6.73;;
13147;SDS011;6639;50.956;4.242;2023-04-03T05:13:27;8.33;;;6.73;;
13147;SDS011;6639;50.956;4.242;2023-04-03T05:15:56;7.90;;;7.10;;
13147;SDS011;6639;50.956;4.242;2023-04-03T05:18:23;9.50;;;7.50;;
13147;SDS011;6639;50.956;4.242;2023-04-03T05:20:50;7.40;;;6.70;;
13147;SDS011;6639;50.956;4.242;2023-04-03T05:23:17;7.50;;;6.80;;
13147;SDS011;6639;50.956;4.242;2023-04-03T05:25:46;8.53;;;7.63;;
13147;SDS011;6639;50.956;4.242;2023-04-03T05:28:14;8.23;;;7.40;;
13147;SDS011;6639;50.956;4.242;2023-04-03T05:30:41;8.73;;;7.83;;
13147;SDS011;6639;50.956;4.242;2023-04-03T05:33:09;7.97;;;7.27;;
13147;SDS011;6639;50.956;4.242;2023-04-03T05:35:36;9.10;;;7.73;;
13147;SDS011;6639;50.956;4.242;2023-04-03T05:38:06;7.87;;;7.07;;
13147;SDS011;6639;50.956;4.242;2023-04-03T05:40:33;7.78;;;7.07;;
13147;SDS011;6639;50.956;4.242;2023-04-03T05:43:00;7.87;;;7.17;;
13147;SDS011;6639;50.956;4.242;2023-04-03T05:45:27;8.55;;;7.65;;
13147;SDS011;6639;50.956;4.242;2023-04-03T05:47:54;8.33;;;6.97;;
13147;SDS011;6639;50.956;4.242;2023-04-03T05:50:23;6.75;;;6.10;;
13147;SDS011;6639;50.956;4.242;2023-04-03T05:52:50;10.23;;;6.78;;
13147;SDS011;6639;50.956;4.242;2023-04-03T05:55:20;6.68;;;6.07;;
13147;SDS011;6639;50.956;4.242;2023-04-03T05:57:47;6.93;;;6.28;;
13147;SDS011;6639;50.956;4.242;2023-04-03T06:00:15;7.55;;;6.85;;
13147;SDS011;6639;50.956;4.242;2023-04-03T06:02:43;6.47;;;5.88;;
13147;SDS011;6639;50.956;4.242;2023-04-03T06:05:10;7.05;;;6.35;;
13147;SDS011;6639;50.956;4.242;2023-04-03T06:07:39;6.23;;;5.73;;
13147;SDS011;6639;50.956;4.242;2023-04-03T06:10:06;6.45;;;5.95;;
13147;SDS011;6639;50.956;4.242;2023-04-03T06:12:34;8.35;;;7.00;;
13147;SDS011;6639;50.956;4.242;2023-04-03T06:15:01;6.85;;;6.25;;
13147;SDS011;6639;50.956;4.242;2023-04-03T06:17:29;6.05;;;5.40;;
13147;SDS011;6639;50.956;4.242;2023-04-03T06:19:56;5.45;;;4.95;;
13147;SDS011;6639;50.956;4.242;2023-04-03T06:22:23;6.75;;;5.78;;
13147;SDS011;6639;50.956;4.242;2023-04-03T06:24:56;7.32;;;5.78;;
13147;SDS011;6639;50.956;4.242;2023-04-03T06:27:23;9.75;;;6.18;;
13147;SDS011;6639;50.956;4.242;2023-04-03T06:29:50;5.85;;;5.20;;
13147;SDS011;6639;50.956;4.242;2023-04-03T06:32:19;6.15;;;5.65;;
13147;SDS011;6639;50.956;4.242;2023-04-03T06:34:46;6.55;;;5.82;;
13147;SDS011;6639;50.956;4.242;2023-04-03T06:37:17;5.90;;;5.28;;
13147;SDS011;6639;50.956;4.242;2023-04-03T06:39:57;7.32;;;5.53;;
13147;SDS011;6639;50.956;4.242;2023-04-03T06:42:26;7.65;;;6.60;;
13147;SDS011;6639;50.956;4.242;2023-04-03T06:44:53;8.55;;;6.47;;
13147;SDS011;6639;50.956;4.242;2023-04-03T06:47:24;6.72;;;5.97;;
13147;SDS011;6639;50.956;4.242;2023-04-03T06:49:51;7.90;;;5.82;;
13147;SDS011;6639;50.956;4.242;2023-04-03T07:05:17;9.63;;;6.93;;
13147;SDS011;6639;50.956;4.242;2023-04-03T07:07:44;6.35;;;5.75;;
13147;SDS011;6639;50.956;4.242;2023-04-03T07:10:11;7.60;;;5.95;;
13147;SDS011;6639;50.956;4.242;2023-04-03T07:12:41;5.57;;;5.05;;
13147;SDS011;6639;50.956;4.242;2023-04-03T07:15:11;6.25;;;5.70;;
13147;SDS011;6639;50.956;4.242;2023-04-03T07:17:40;5.60;;;5.20;;
13147;SDS011;6639;50.956;4.242;2023-04-03T07:20:13;6.88;;;5.55;;
13147;SDS011;6639;50.956;4.242;2023-04-03T07:22:42;6.45;;;5.85;;
13147;SDS011;6639;50.956;4.242;2023-04-03T07:25:09;5.75;;;5.18;;
13147;SDS011;6639;50.956;4.242;2023-04-03T07:27:39;6.25;;;5.65;;
13147;SDS011;6639;50.956;4.242;2023-04-03T07:30:09;6.05;;;5.45;;
13147;SDS011;6639;50.956;4.242;2023-04-03T07:32:37;6.20;;;5.10;;
13147;SDS011;6639;50.956;4.242;2023-04-03T07:35:04;5.65;;;5.03;;
13147;SDS011;6639;50.956;4.242;2023-04-03T07:37:31;5.95;;;5.20;;
13147;SDS011;6639;50.956;4.242;2023-04-03T07:40:07;8.27;;;5.13;;
13147;SDS011;6639;50.956;4.242;2023-04-03T07:42:35;5.35;;;4.85;;
13147;SDS011;6639;50.956;4.242;2023-04-03T07:45:02;6.30;;;4.95;;
13147;SDS011;6639;50.956;4.242;2023-04-03T07:47:31;5.53;;;5.03;;
13147;SDS011;6639;50.956;4.242;2023-04-03T07:49:58;7.97;;;5.30;;
13147;SDS011;6639;50.956;4.242;2023-04-03T07:52:25;5.28;;;4.78;;
13147;SDS011;6639;50.956;4.242;2023-04-03T07:54:52;5.63;;;4.55;;
13147;SDS011;6639;50.956;4.242;2023-04-03T07:57:21;6.15;;;5.10;;
13147;SDS011;6639;50.956;4.242;2023-04-03T07:59:51;4.57;;;4.18;;
13147;SDS011;6639;50.956;4.242;2023-04-03T08:02:20;7.93;;;4.90;;
13147;SDS011;6639;50.956;4.242;2023-04-03T08:04:47;6.00;;;5.22;;
13147;SDS011;6639;50.956;4.242;2023-04-03T08:07:14;5.60;;;5.00;;
13147;SDS011;6639;50.956;4.242;2023-04-03T08:09:49;5.25;;;4.75;;
13147;SDS011;6639;50.956;4.242;2023-04-03T08:12:16;6.18;;;5.03;;
13147;SDS011;6639;50.956;4.242;2023-04-03T08:14:45;4.43;;;4.03;;
13147;SDS011;6639;50.956;4.242;2023-04-03T08:17:12;4.75;;;4.25;;
13147;SDS011;6639;50.956;4.242;2023-04-03T08:19:40;4.32;;;3.70;;
13147;SDS011;6639;50.956;4.242;2023-04-03T08:22:07;5.05;;;4.05;;
13147;SDS011;6639;50.956;4.242;2023-04-03T08:24:34;4.38;;;3.97;;
13147;SDS011;6639;50.956;4.242;2023-04-03T08:27:01;5.90;;;4.53;;
13147;SDS011;6639;50.956;4.242;2023-04-03T08:29:28;6.53;;;4.30;;
13147;SDS011;6639;50.956;4.242;2023-04-03T08:31:56;6.22;;;4.70;;
13147;SDS011;6639;50.956;4.242;2023-04-03T08:34:23;4.20;;;3.80;;
13147;SDS011;6639;50.956;4.242;2023-04-03T08:36:51;5.25;;;4.25;;
13147;SDS011;6639;50.956;4.242;2023-04-03T08:39:18;4.10;;;3.70;;
13147;SDS011;6639;50.956;4.242;2023-04-03T08:41:45;5.45;;;4.05;;
13147;SDS011;6639;50.956;4.242;2023-04-03T08:44:17;4.88;;;3.83;;
13147;SDS011;6639;50.956;4.242;2023-04-03T08:46:54;5.85;;;3.75;;
13147;SDS011;6639;50.956;4.242;2023-04-03T08:49:39;4.30;;;3.90;;
13147;SDS011;6639;50.956;4.242;2023-04-03T08:52:12;6.97;;;3.55;;
13147;SDS011;6639;50.956;4.242;2023-04-03T08:54:46;3.90;;;3.50;;
13147;SDS011;6639;50.956;4.242;2023-04-03T08:57:16;5.63;;;3.72;;
13147;SDS011;6639;50.956;4.242;2023-04-03T08:59:54;5.32;;;3.70;;
13147;SDS011;6639;50.956;4.242;2023-04-03T09:02:25;4.03;;;3.08;;
13147;SDS011;6639;50.956;4.242;2023-04-03T09:04:57;4.57;;;3.08;;
13147;SDS011;6639;50.956;4.242;2023-04-03T09:07:29;3.50;;;3.17;;
13147;SDS011;6639;50.956;4.242;2023-04-03T09:10:03;4.65;;;3.30;;
13147;SDS011;6639;50.956;4.242;2023-04-03T09:12:32;4.60;;;3.65;;
13147;SDS011;6639;50.956;4.242;2023-04-03T09:15:05;4.82;;;2.88;;
13147;SDS011;6639;50.956;4.242;2023-04-03T09:17:45;3.78;;;2.60;;
13147;SDS011;6639;50.956;4.242;2023-04-03T09:20:21;3.65;;;2.60;;
13147;SDS011;6639;50.956;4.242;2023-04-03T09:22:54;3.22;;;2.90;;
13147;SDS011;6639;50.956;4.242;2023-04-03T09:25:22;4.10;;;2.65;;
13147;SDS011;6639;50.956;4.242;2023-04-03T09:27:51;3.58;;;2.58;;
13147;SDS011;6639;50.956;4.242;2023-04-03T09:30:20;3.53;;;2.55;;
13147;SDS011;6639;50.956;4.242;2023-04-03T09:32:50;2.53;;;2.28;;
13147;SDS011;6639;50.956;4.242;2023-04-03T09:35:22;3.08;;;2.40;;
13147;SDS011;6639;50.956;4.242;2023-04-03T09:37:51;4.18;;;2.72;;
13147;SDS011;6639;50.956;4.242;2023-04-03T09:40:29;3.92;;;2.40;;
13147;SDS011;6639;50.956;4.242;2023-04-03T09:43:19;3.85;;;3.05;;
13147;SDS011;6639;50.956;4.242;2023-04-03T09:45:49;2.53;;;2.33;;
13147;SDS011;6639;50.956;4.242;2023-04-03T09:48:19;4.30;;;2.33;;
13147;SDS011;6639;50.956;4.242;2023-04-03T09:50:53;4.35;;;2.00;;
13147;SDS011;6639;50.956;4.242;2023-04-03T09:53:26;3.95;;;2.30;;
13147;SDS011;6639;50.956;4.242;2023-04-03T09:55:59;5.50;;;2.50;;
13147;SDS011;6639;50.956;4.242;2023-04-03T09:58:28;4.05;;;2.15;;
13147;SDS011;6639;50.956;4.242;2023-04-03T10:00:59;3.65;;;2.00;;
13147;SDS011;6639;50.956;4.242;2023-04-03T10:03:29;3.22;;;1.92;;
13147;SDS011;6639;50.956;4.242;2023-04-03T10:05:59;3.63;;;2.00;;
13147;SDS011;6639;50.956;4.242;2023-04-03T10:08:27;2.80;;;1.90;;
13147;SDS011;6639;50.956;4.242;2023-04-03T10:11:12;2.97;;;2.22;;
13147;SDS011;6639;50.956;4.242;2023-04-03T10:13:49;3.47;;;1.92;;
13147;SDS011;6639;50.956;4.242;2023-04-03T10:16:22;3.83;;;2.00;;
13147;SDS011;6639;50.956;4.242;2023-04-03T10:18:56;2.85;;;2.10;;
13147;SDS011;6639;50.956;4.242;2023-04-03T10:21:44;1.90;;;1.70;;
13147;SDS011;6639;50.956;4.242;2023-04-03T10:24:14;4.00;;;2.30;;
13147;SDS011;6639;50.956;4.242;2023-04-03T10:26:50;4.43;;;2.22;;
13147;SDS011;6639;50.956;4.242;2023-04-03T10:29:29;3.65;;;1.80;;
13147;SDS011;6639;50.956;4.242;2023-04-03T10:32:13;4.50;;;1.95;;
13147;SDS011;6639;50.956;4.242;2023-04-03T10:34:50;2.05;;;1.80;;
13147;SDS011;6639;50.956;4.242;2023-04-03T10:37:24;3.35;;;1.98;;
13147;SDS011;6639;50.956;4.242;2023-04-03T10:39:57;3.35;;;1.80;;
13147;SDS011;6639;50.956;4.242;2023-04-03T10:42:32;3.05;;;1.83;;
13147;SDS011;6639;50.956;4.242;2023-04-03T10:45:15;1.88;;;1.58;;
13147;SDS011;6639;50.956;4.242;2023-04-03T10:47:51;2.53;;;1.60;;
13147;SDS011;6639;50.956;4.242;2023-04-03T10:50:29;3.47;;;2.05;;
13147;SDS011;6639;50.956;4.242;2023-04-03T10:53:05;2.30;;;1.83;;
13147;SDS011;6639;50.956;4.242;2023-04-03T10:55:41;1.98;;;1.60;;
13147;SDS011;6639;50.956;4.242;2023-04-03T10:58:14;4.85;;;1.60;;
13147;SDS011;6639;50.956;4.242;2023-04-03T11:00:51;3.75;;;1.88;;
13147;SDS011;6639;50.956;4.242;2023-04-03T11:03:25;1.55;;;1.40;;
13147;SDS011;6639;50.956;4.242;2023-04-03T11:05:59;2.40;;;1.60;;
13147;SDS011;6639;50.956;4.242;2023-04-03T11:08:30;4.28;;;1.77;;
13147;SDS011;6639;50.956;4.242;2023-04-03T11:11:04;3.50;;;1.55;;
13147;SDS011;6639;50.956;4.242;2023-04-03T11:13:35;1.98;;;1.40;;
13147;SDS011;6639;50.956;4.242;2023-04-03T11:16:07;1.40;;;1.30;;
13147;SDS011;6639;50.956;4.242;2023-04-03T11:18:35;2.05;;;1.58;;
13147;SDS011;6639;50.956;4.242;2023-04-03T11:21:09;2.90;;;1.75;;
13147;SDS011;6639;50.956;4.242;2023-04-03T11:23:40;2.13;;;1.38;;
13147;SDS011;6639;50.956;4.242;2023-04-03T11:26:10;2.08;;;1.52;;
13147;SDS011;6639;50.956;4.242;2023-04-03T11:28:39;2.35;;;1.35;;
13147;SDS011;6639;50.956;4.242;2023-04-03T11:31:11;2.28;;;1.27;;
13147;SDS011;6639;50.956;4.242;2023-04-03T11:33:55;1.77;;;1.65;;
13147;SDS011;6639;50.956;4.242;2023-04-03T11:36:30;3.83;;;1.92;;
13147;SDS011;6639;50.956;4.242;2023-04-03T11:39:02;3.20;;;1.45;;
13147;SDS011;6639;50.956;4.242;2023-04-03T11:41:36;1.90;;;1.67;;
13147;SDS011;6639;50.956;4.242;2023-04-03T11:44:04;1.85;;;1.65;;
13147;SDS011;6639;50.956;4.242;2023-04-03T11:46:49;3.28;;;1.85;;
13147;SDS011;6639;50.956;4.242;2023-04-03T11:55:42;2.83;;;1.80;;
13147;SDS011;6639;50.956;4.242;2023-04-03T11:58:18;2.72;;;1.30;;
13147;SDS011;6639;50.956;4.242;2023-04-03T12:00:53;2.50;;;1.90;;
13147;SDS011;6639;50.956;4.242;2023-04-03T12:12:41;2.33;;;1.40;;
13147;SDS011;6639;50.956;4.242;2023-04-03T12:15:12;4.05;;;1.50;;
13147;SDS011;6639;50.956;4.242;2023-04-03T12:17:50;3.63;;;1.30;;
13147;SDS011;6639;50.956;4.242;2023-04-03T12:23:27;3.00;;;1.27;;
13147;SDS011;6639;50.956;4.242;2023-04-03T12:26:05;3.40;;;1.27;;
13147;SDS011;6639;50.956;4.242;2023-04-03T12:28:47;2.15;;;1.30;;
13147;SDS011;6639;50.956;4.242;2023-04-03T12:31:32;2.20;;;1.60;;
13147;SDS011;6639;50.956;4.242;2023-04-03T12:34:27;2.00;;;1.23;;
13147;SDS011;6639;50.956;4.242;2023-04-03T12:37:13;2.13;;;1.50;;
13147;SDS011;6639;50.956;4.242;2023-04-03T12:39:53;2.78;;;1.30;;
13147;SDS011;6639;50.956;4.242;2023-04-03T12:42:32;2.38;;;1.23;;
13147;SDS011;6639;50.956;4.242;2023-04-03T12:45:16;3.10;;;1.70;;
13147;SDS011;6639;50.956;4.242;2023-04-03T12:47:48;1.40;;;1.27;;
13147;SDS011;6639;50.956;4.242;2023-04-03T12:50:18;1.30;;;1.20;;
13147;SDS011;6639;50.956;4.242;2023-04-03T12:52:52;1.52;;;1.42;;
13147;SDS011;6639;50.956;4.242;2023-04-03T12:55:24;2.92;;;1.20;;
13147;SDS011;6639;50.956;4.242;2023-04-03T12:57:53;1.73;;;1.52;;
13147;SDS011;6639;50.956;4.242;2023-04-03T13:00:25;2.35;;;1.10;;
13147;SDS011;6639;50.956;4.242;2023-04-03T13:02:55;1.35;;;1.20;;
13147;SDS011;6639;50.956;4.242;2023-04-03T13:05:24;3.08;;;1.33;;
13147;SDS011;6639;50.956;4.242;2023-04-03T13:07:54;2.55;;;1.52;;
13147;SDS011;6639;50.956;4.242;2023-04-03T13:10:27;2.15;;;1.38;;
13147;SDS011;6639;50.956;4.242;2023-04-03T13:12:57;1.83;;;1.10;;
13147;SDS011;6639;50.956;4.242;2023-04-03T13:15:26;1.58;;;1.00;;
13147;SDS011;6639;50.956;4.242;2023-04-03T13:17:55;1.67;;;1.00;;
13147;SDS011;6639;50.956;4.242;2023-04-03T13:20:24;4.15;;;1.20;;
13147;SDS011;6639;50.956;4.242;2023-04-03T13:22:57;3.03;;;1.27;;
13147;SDS011;6639;50.956;4.242;2023-04-03T13:25:27;1.55;;;1.45;;
13147;SDS011;6639;50.956;4.242;2023-04-03T13:27:58;4.25;;;1.38;;
13147;SDS011;6639;50.956;4.242;2023-04-03T13:30:28;2.25;;;1.15;;
13147;SDS011;6639;50.956;4.242;2023-04-03T13:32:58;1.52;;;1.27;;
13147;SDS011;6639;50.956;4.242;2023-04-03T13:35:29;1.20;;;1.10;;
13147;SDS011;6639;50.956;4.242;2023-04-03T13:38:01;1.52;;;1.42;;
13147;SDS011;6639;50.956;4.242;2023-04-03T13:40:30;3.55;;;1.38;;
13147;SDS011;6639;50.956;4.242;2023-04-03T13:43:06;1.58;;;1.42;;
13147;SDS011;6639;50.956;4.242;2023-04-03T13:45:53;3.67;;;1.58;;
13147;SDS011;6639;50.956;4.242;2023-04-03T13:48:22;1.30;;;1.10;;
13147;SDS011;6639;50.956;4.242;2023-04-03T13:50:57;1.13;;;1.02;;
13147;SDS011;6639;50.956;4.242;2023-04-03T13:53:27;2.33;;;1.50;;
13147;SDS011;6639;50.956;4.242;2023-04-03T13:56:00;3.47;;;1.27;;
13147;SDS011;6639;50.956;4.242;2023-04-03T13:58:34;2.00;;;1.35;;
13147;SDS011;6639;50.956;4.242;2023-04-03T14:01:07;2.28;;;1.38;;
13147;SDS011;6639;50.956;4.242;2023-04-03T14:03:40;2.78;;;1.60;;
13147;SDS011;6639;50.956;4.242;2023-04-03T14:06:10;2.33;;;1.77;;
13147;SDS011;6639;50.956;4.242;2023-04-03T14:08:41;1.42;;;1.27;;
13147;SDS011;6639;50.956;4.242;2023-04-03T14:11:11;2.92;;;1.48;;
13147;SDS011;6639;50.956;4.242;2023-04-03T14:13:41;1.60;;;1.50;;
13147;SDS011;6639;50.956;4.242;2023-04-03T14:16:12;2.00;;;1.50;;
13147;SDS011;6639;50.956;4.242;2023-04-03T14:18:41;1.45;;;1.17;;
13147;SDS011;6639;50.956;4.242;2023-04-03T14:21:09;4.13;;;1.48;;
13147;SDS011;6639;50.956;4.242;2023-04-03T14:23:38;3.03;;;1.52;;
13147;SDS011;6639;50.956;4.242;2023-04-03T14:26:07;2.38;;;1.58;;
13147;SDS011;6639;50.956;4.242;2023-04-03T14:28:39;2.10;;;1.63;;
13147;SDS011;6639;50.956;4.242;2023-04-03T14:31:08;2.72;;;1.88;;
13147;SDS011;6639;50.956;4.242;2023-04-03T14:33:36;1.73;;;1.55;;
13147;SDS011;6639;50.956;4.242;2023-04-03T14:36:05;3.05;;;1.45;;
13147;SDS011;6639;50.956;4.242;2023-04-03T14:38:48;2.30;;;1.25;;
13147;SDS011;6639;50.956;4.242;2023-04-03T14:41:17;1.55;;;1.45;;
13147;SDS011;6639;50.956;4.242;2023-04-03T14:43:47;2.45;;;1.55;;
13147;SDS011;6639;50.956;4.242;2023-04-03T14:46:17;3.05;;;1.70;;
13147;SDS011;6639;50.956;4.242;2023-04-03T14:48:48;1.38;;;1.23;;
13147;SDS011;6639;50.956;4.242;2023-04-03T14:51:15;2.72;;;2.15;;
13147;SDS011;6639;50.956;4.242;2023-04-03T14:53:43;6.25;;;1.63;;
13147;SDS011;6639;50.956;4.242;2023-04-03T14:56:11;2.25;;;1.73;;
13147;SDS011;6639;50.956;4.242;2023-04-03T14:58:40;3.95;;;1.70;;
13147;SDS011;6639;50.956;4.242;2023-04-03T15:01:09;1.45;;;1.25;;
13147;SDS011;6639;50.956;4.242;2023-04-03T15:03:40;1.38;;;1.17;;
13147;SDS011;6639;50.956;4.242;2023-04-03T15:06:10;1.40;;;1.23;;
13147;SDS011;6639;50.956;4.242;2023-04-03T15:08:39;3.95;;;1.40;;
13147;SDS011;6639;50.956;4.242;2023-04-03T15:11:07;3.15;;;1.83;;
13147;SDS011;6639;50.956;4.242;2023-04-03T15:13:35;1.83;;;1.50;;
13147;SDS011;6639;50.956;4.242;2023-04-03T15:16:02;1.73;;;1.10;;
13147;SDS011;6639;50.956;4.242;2023-04-03T15:21:43;3.85;;;1.38;;
13147;SDS011;6639;50.956;4.242;2023-04-03T15:24:11;2.50;;;1.35;;
13147;SDS011;6639;50.956;4.242;2023-04-03T15:26:38;2.55;;;1.60;;
13147;SDS011;6639;50.956;4.242;2023-04-03T15:29:05;1.33;;;1.20;;
13147;SDS011;6639;50.956;4.242;2023-04-03T15:31:33;1.92;;;1.40;;
13147;SDS011;6639;50.956;4.242;2023-04-03T15:34:00;1.55;;;1.23;;
13147;SDS011;6639;50.956;4.242;2023-04-03T15:36:27;2.83;;;1.40;;
13147;SDS011;6639;50.956;4.242;2023-04-03T15:38:55;1.75;;;1.10;;
13147;SDS011;6639;50.956;4.242;2023-04-03T15:41:22;1.75;;;1.40;;
13147;SDS011;6639;50.956;4.242;2023-04-03T15:43:49;2.10;;;1.15;;
13147;SDS011;6639;50.956;4.242;2023-04-03T15:46:16;1.65;;;1.25;;
13147;SDS011;6639;50.956;4.242;2023-04-03T15:48:43;2.03;;;1.40;;
13147;SDS011;6639;50.956;4.242;2023-04-03T15:51:11;2.05;;;1.83;;
13147;SDS011;6639;50.956;4.242;2023-04-03T15:53:38;3.40;;;1.50;;